Time;durP1;ratioP1;P1;durP2;ratioP2;P2;SDS_P1;SDS_P2;PMS_P1;PMS_P2;Temp;Humidity;BMP_temperature;BMP_pressure;BME280_temperature;BME280_humidity;BME280_pressure;Samples;Min_cycle;Max_cycle;Signal;HPM_P1;HPM_P2
2024/03/19 00:02:23;;;;;;;45.90;41.10;;;;;;;;;;5060395;28;20455;-77
2024/03/19 00:07:53;;;;;;;47.67;41.20;;;;;;;;;;5068773;28;20483;-77
2024/03/19 00:10:20;;;;;;;46.70;41.70;;;;;;;;;;5052640;28;20471;-77
2024/03/19 00:12:47;;;;;;;44.80;40.60;;;;;;;;;;5053303;28;20473;-77
2024/03/19 00:15:16;;;;;;;46.87;42.23;;;;;;;;;;5053298;28;20446;-76
2024/03/19 00:17:42;;;;;;;48.30;41.57;;;;;;;;;;5052689;28;20859;-77
2024/03/19 00:20:10;;;;;;;46.07;41.37;;;;;;;;;;5052358;28;20880;-77
2024/03/19 00:22:37;;;;;;;44.93;40.53;;;;;;;;;;5052770;28;20467;-76
2024/03/19 00:25:05;;;;;;;46.50;41.80;;;;;;;;;;5053203;28;20506;-76
2024/03/19 00:27:33;;;;;;;44.43;40.10;;;;;;;;;;5052724;28;20480;-76
2024/03/19 00:30:00;;;;;;;41.87;37.77;;;;;;;;;;5053147;28;20820;-76
2024/03/19 00:32:28;;;;;;;40.83;37.00;;;;;;;;;;5053125;28;20450;-76
2024/03/19 00:34:57;;;;;;;42.03;37.90;;;;;;;;;;5052206;28;21011;-77
2024/03/19 00:37:24;;;;;;;43.53;39.27;;;;;;;;;;5061591;28;20446;-76
2024/03/19 00:39:50;;;;;;;43.97;39.87;;;;;;;;;;5072738;28;20534;-77
2024/03/19 00:45:22;;;;;;;43.13;39.13;;;;;;;;;;5050839;28;20418;-76
2024/03/19 00:47:51;;;;;;;43.17;38.60;;;;;;;;;;5071308;28;20612;-76
2024/03/19 00:50:18;;;;;;;47.53;42.90;;;;;;;;;;5072513;28;20508;-76
2024/03/19 00:52:45;;;;;;;43.60;39.50;;;;;;;;;;5072400;28;20810;-77
2024/03/19 00:55:12;;;;;;;43.30;39.03;;;;;;;;;;5072665;28;20451;-77
2024/03/19 00:57:39;;;;;;;44.10;39.80;;;;;;;;;;5071573;28;21128;-76
2024/03/19 01:00:10;;;;;;;43.80;39.50;;;;;;;;;;5072165;28;20477;-76
2024/03/19 01:02:38;;;;;;;40.20;36.50;;;;;;;;;;5072235;28;20437;-77
2024/03/19 01:05:08;;;;;;;40.20;36.40;;;;;;;;;;5072440;28;20452;-76
2024/03/19 01:07:35;;;;;;;40.77;37.03;;;;;;;;;;5071557;28;20954;-77
2024/03/19 01:10:02;;;;;;;42.17;38.13;;;;;;;;;;5072076;28;20552;-76
2024/03/19 01:12:29;;;;;;;41.60;37.37;;;;;;;;;;5072310;28;20473;-77
2024/03/19 01:14:56;;;;;;;44.57;40.27;;;;;;;;;;5072370;28;20456;-77
2024/03/19 01:17:24;;;;;;;49.07;43.60;;;;;;;;;;5071844;28;20424;-76
2024/03/19 01:19:51;;;;;;;44.83;40.53;;;;;;;;;;5070699;28;20473;-77
2024/03/19 01:22:19;;;;;;;48.10;43.10;;;;;;;;;;5052391;28;20488;-76
2024/03/19 01:24:46;;;;;;;47.20;42.30;;;;;;;;;;5051326;28;20466;-76
2024/03/19 01:27:13;;;;;;;46.80;42.10;;;;;;;;;;5051476;28;20507;-77
2024/03/19 01:29:40;;;;;;;47.40;42.40;;;;;;;;;;5052002;28;20951;-76
2024/03/19 01:35:11;;;;;;;46.67;42.10;;;;;;;;;;5049691;28;20423;-76
2024/03/19 01:37:39;;;;;;;43.90;39.80;;;;;;;;;;5049463;28;20433;-77
2024/03/19 01:40:07;;;;;;;44.50;39.80;;;;;;;;;;5051487;28;20449;-77
2024/03/19 01:42:34;;;;;;;46.47;42.00;;;;;;;;;;5051417;28;20941;-76
2024/03/19 01:45:08;;;;;;;42.73;38.30;;;;;;;;;;5051672;28;20515;-76
2024/03/19 01:47:35;;;;;;;45.77;41.57;;;;;;;;;;5051242;28;20469;-77
2024/03/19 01:50:03;;;;;;;43.17;38.87;;;;;;;;;;5051391;28;20845;-78
2024/03/19 01:52:30;;;;;;;43.60;39.40;;;;;;;;;;5051254;28;20948;-77
2024/03/19 01:54:58;;;;;;;45.63;40.93;;;;;;;;;;5051614;28;20472;-76
2024/03/19 01:57:26;;;;;;;45.27;40.70;;;;;;;;;;5050420;28;20458;-77
2024/03/19 01:59:53;;;;;;;42.70;38.57;;;;;;;;;;5051170;28;20502;-77
2024/03/19 02:02:30;;;;;;;43.72;39.53;;;;;;;;;;5051029;28;20424;-77
2024/03/19 02:04:57;;;;;;;41.57;37.67;;;;;;;;;;5050906;28;20558;-76
2024/03/19 02:07:24;;;;;;;42.00;38.20;;;;;;;;;;5050460;28;20526;-77
2024/03/19 02:09:51;;;;;;;44.67;40.23;;;;;;;;;;5050906;28;20473;-77
2024/03/19 02:12:20;;;;;;;42.47;38.27;;;;;;;;;;5051075;28;20550;-76
2024/03/19 02:14:47;;;;;;;40.97;37.00;;;;;;;;;;5049843;28;20470;-76
2024/03/19 02:17:14;;;;;;;41.73;37.73;;;;;;;;;;5050327;28;20871;-77
2024/03/19 02:19:41;;;;;;;44.03;39.73;;;;;;;;;;5050943;28;20496;-77
2024/03/19 02:22:09;;;;;;;43.73;39.43;;;;;;;;;;5050914;28;20467;-77
2024/03/19 02:24:38;;;;;;;42.93;38.83;;;;;;;;;;5048655;28;20440;-77
2024/03/19 02:30:09;;;;;;;43.70;39.30;;;;;;;;;;5048874;28;20793;-76
2024/03/19 02:32:36;;;;;;;44.53;40.20;;;;;;;;;;5050404;28;20515;-77
2024/03/19 02:35:03;;;;;;;49.33;44.23;;;;;;;;;;5050406;28;20436;-77
2024/03/19 02:37:30;;;;;;;57.13;46.57;;;;;;;;;;5049848;28;20452;-76
2024/03/19 02:40:00;;;;;;;51.30;45.30;;;;;;;;;;5049607;28;20477;-76
2024/03/19 02:42:27;;;;;;;45.30;40.40;;;;;;;;;;5050581;28;20437;-77
2024/03/19 02:44:54;;;;;;;46.40;41.67;;;;;;;;;;5050097;28;20986;-76
2024/03/19 02:47:21;;;;;;;45.53;40.93;;;;;;;;;;5049489;28;21247;-76
2024/03/19 02:49:48;;;;;;;49.20;43.87;;;;;;;;;;5050410;28;20451;-76
2024/03/19 02:52:15;;;;;;;51.30;45.00;;;;;;;;;;5049845;28;20461;-76
2024/03/19 02:54:42;;;;;;;52.93;46.27;;;;;;;;;;5045286;28;20487;-77
2024/03/19 02:57:10;;;;;;;50.93;45.10;;;;;;;;;;5029945;28;20429;-78
2024/03/19 02:59:40;;;;;;;45.93;41.53;;;;;;;;;;5030212;28;20462;-77
2024/03/19 03:02:07;;;;;;;47.97;42.90;;;;;;;;;;5030262;28;20428;-77
2024/03/19 03:04:34;;;;;;;45.43;40.60;;;;;;;;;;5033229;28;20824;-76
2024/03/19 03:07:01;;;;;;;46.53;41.60;;;;;;;;;;5049987;28;20453;-77
2024/03/19 03:09:28;;;;;;;44.80;39.90;;;;;;;;;;5049756;28;21184;-78
2024/03/19 03:11:55;;;;;;;45.75;41.20;;;;;;;;;;5049998;28;20900;-76
2024/03/19 03:14:24;;;;;;;45.70;41.10;;;;;;;;;;5050321;28;20276;-78
2024/03/19 03:16:51;;;;;;;47.20;42.60;;;;;;;;;;5041277;28;20453;-76
2024/03/19 03:19:18;;;;;;;46.43;41.47;;;;;;;;;;5049992;28;20476;-77
2024/03/19 03:21:45;;;;;;;47.40;42.50;;;;;;;;;;5049909;28;20435;-77
2024/03/19 03:24:12;;;;;;;48.60;43.40;;;;;;;;;;5050063;28;20463;-76
2024/03/19 03:26:39;;;;;;;48.87;44.00;;;;;;;;;;5048843;28;20918;-76
2024/03/19 03:29:06;;;;;;;45.63;40.83;;;;;;;;;;5053891;28;20983;-76
2024/03/19 03:31:34;;;;;;;47.13;41.30;;;;;;;;;;5054220;28;20514;-78
2024/03/19 03:34:01;;;;;;;51.40;41.55;;;;;;;;;;5053900;28;20465;-76
2024/03/19 03:36:28;;;;;;;46.50;41.90;;;;;;;;;;5053270;28;20215;-78
2024/03/19 03:38:55;;;;;;;44.67;40.27;;;;;;;;;;5053557;28;20474;-77
2024/03/19 03:41:22;;;;;;;48.10;42.93;;;;;;;;;;5053957;28;20475;-77
2024/03/19 03:43:48;;;;;;;45.57;40.70;;;;;;;;;;5053281;28;20605;-76
2024/03/19 03:46:15;;;;;;;52.93;44.50;;;;;;;;;;5053448;28;20447;-77
2024/03/19 03:48:44;;;;;;;57.07;46.00;;;;;;;;;;5053904;28;20481;-77
2024/03/19 03:51:11;;;;;;;50.60;44.80;;;;;;;;;;5053690;28;20453;-77
2024/03/19 03:53:38;;;;;;;56.53;48.43;;;;;;;;;;5053045;28;20533;-77
2024/03/19 03:56:05;;;;;;;49.63;44.47;;;;;;;;;;5052577;28;20449;-77
2024/03/19 03:58:32;;;;;;;49.47;43.37;;;;;;;;;;5053185;28;20419;-76
2024/03/19 04:01:02;;;;;;;48.07;42.90;;;;;;;;;;5053373;28;20475;-76
2024/03/19 04:03:31;;;;;;;55.57;45.03;;;;;;;;;;5053633;28;20437;-77
2024/03/19 04:05:59;;;;;;;51.60;46.10;;;;;;;;;;5052767;28;20596;-77
2024/03/19 04:08:27;;;;;;;48.63;43.17;;;;;;;;;;5052790;28;20582;-77
2024/03/19 04:10:54;;;;;;;46.17;41.43;;;;;;;;;;5053435;28;20447;-77
2024/03/19 04:13:21;;;;;;;47.43;42.60;;;;;;;;;;5053200;28;20997;-77
2024/03/19 04:15:49;;;;;;;49.07;43.70;;;;;;;;;;5043342;28;20920;-76
2024/03/19 04:18:17;;;;;;;61.50;47.83;;;;;;;;;;5052361;28;20973;-76
2024/03/19 04:20:44;;;;;;;49.47;44.53;;;;;;;;;;5052823;28;20484;-77
2024/03/19 04:23:12;;;;;;;52.63;43.77;;;;;;;;;;5052880;28;20447;-76
2024/03/19 04:25:39;;;;;;;51.83;45.70;;;;;;;;;;5038234;28;20487;-77
2024/03/19 04:28:06;;;;;;;49.27;43.90;;;;;;;;;;5032621;28;20494;-77
2024/03/19 04:30:33;;;;;;;50.37;44.47;;;;;;;;;;5032708;28;20542;-77
2024/03/19 04:33:01;;;;;;;47.43;42.53;;;;;;;;;;5033091;28;20435;-77
2024/03/19 04:35:28;;;;;;;47.13;42.33;;;;;;;;;;5033724;28;20424;-76
2024/03/19 04:37:54;;;;;;;59.80;47.97;;;;;;;;;;5051145;28;21263;-76
2024/03/19 04:40:24;;;;;;;58.73;48.60;;;;;;;;;;5052383;28;20765;-77
2024/03/19 04:42:51;;;;;;;55.43;46.90;;;;;;;;;;5052873;28;20511;-77
2024/03/19 04:45:17;;;;;;;53.17;47.07;;;;;;;;;;5051071;28;20507;-78
2024/03/19 04:47:44;;;;;;;67.13;49.93;;;;;;;;;;5032152;28;20425;-75
2024/03/19 04:50:11;;;;;;;73.93;52.67;;;;;;;;;;5032389;28;20445;-77
2024/03/19 04:52:38;;;;;;;73.07;52.10;;;;;;;;;;5031925;28;20462;-78
2024/03/19 04:55:06;;;;;;;69.80;52.17;;;;;;;;;;5032524;28;20425;-78
2024/03/19 04:57:34;;;;;;;63.80;50.23;;;;;;;;;;5032065;28;20580;-77
2024/03/19 05:00:01;;;;;;;77.03;53.40;;;;;;;;;;5032292;28;20449;-77
2024/03/19 05:02:28;;;;;;;66.23;50.73;;;;;;;;;;5032619;28;20459;-77
2024/03/19 05:04:55;;;;;;;66.57;49.87;;;;;;;;;;5032385;28;20428;-77
2024/03/19 05:07:22;;;;;;;74.43;50.80;;;;;;;;;;5048227;28;20461;-77
2024/03/19 05:09:50;;;;;;;62.27;47.53;;;;;;;;;;5031966;28;20496;-77
2024/03/19 05:12:17;;;;;;;76.60;51.87;;;;;;;;;;5031456;28;20476;-76
2024/03/19 05:14:45;;;;;;;59.00;48.27;;;;;;;;;;5032171;28;20474;-77
2024/03/19 05:17:12;;;;;;;63.17;48.70;;;;;;;;;;5031137;28;20920;-77
2024/03/19 05:19:39;;;;;;;63.10;50.17;;;;;;;;;;5031866;28;20461;-76
2024/03/19 05:22:06;;;;;;;68.30;51.43;;;;;;;;;;5031762;28;20437;-77
2024/03/19 05:24:33;;;;;;;67.07;50.67;;;;;;;;;;5032111;28;20475;-76
2024/03/19 05:27:00;;;;;;;82.57;55.53;;;;;;;;;;5031046;28;20424;-77
2024/03/19 05:29:27;;;;;;;88.73;55.33;;;;;;;;;;5031712;28;20610;-76
2024/03/19 05:31:56;;;;;;;81.43;54.70;;;;;;;;;;5031903;28;20428;-77
2024/03/19 05:34:23;;;;;;;91.37;58.10;;;;;;;;;;5031765;28;20488;-76
2024/03/19 05:36:50;;;;;;;92.83;55.93;;;;;;;;;;5030501;28;20449;-76
2024/03/19 05:39:16;;;;;;;82.23;53.93;;;;;;;;;;5031481;28;20437;-77
2024/03/19 05:41:43;;;;;;;88.83;54.10;;;;;;;;;;5031514;28;20450;-77
2024/03/19 05:44:10;;;;;;;62.67;50.90;;;;;;;;;;5031609;28;20432;-76
2024/03/19 05:46:37;;;;;;;68.50;51.10;;;;;;;;;;5031334;28;20428;-77
2024/03/19 05:49:05;;;;;;;68.03;51.17;;;;;;;;;;5031583;28;20473;-76
2024/03/19 05:51:32;;;;;;;76.50;52.30;;;;;;;;;;5030820;28;20451;-77
2024/03/19 05:53:59;;;;;;;62.37;50.93;;;;;;;;;;5031520;28;20451;-77
2024/03/19 05:56:27;;;;;;;79.97;51.03;;;;;;;;;;5030745;28;20509;-77
2024/03/19 05:58:54;;;;;;;63.87;49.20;;;;;;;;;;5031159;28;20442;-77
2024/03/19 06:01:21;;;;;;;72.50;49.93;;;;;;;;;;5031454;28;20458;-78
2024/03/19 06:03:48;;;;;;;69.60;51.40;;;;;;;;;;5031219;28;20911;-76
2024/03/19 06:06:16;;;;;;;76.90;52.20;;;;;;;;;;5031161;28;20457;-77
2024/03/19 06:08:43;;;;;;;58.40;47.20;;;;;;;;;;5031381;28;20464;-77
2024/03/19 06:11:10;;;;;;;60.73;45.87;;;;;;;;;;5031505;28;20425;-78
2024/03/19 06:13:37;;;;;;;73.10;48.40;;;;;;;;;;5031418;28;20428;-77
2024/03/19 06:16:05;;;;;;;69.00;50.97;;;;;;;;;;5031220;28;20426;-78
2024/03/19 06:18:32;;;;;;;80.93;53.33;;;;;;;;;;5033300;28;20435;-80
2024/03/19 06:20:59;;;;;;;82.83;53.60;;;;;;;;;;5031810;28;20481;-78
2024/03/19 06:23:27;;;;;;;80.40;54.67;;;;;;;;;;5031284;28;21141;-76
2024/03/19 06:25:54;;;;;;;81.80;55.17;;;;;;;;;;5045479;28;20437;-78
2024/03/19 06:28:22;;;;;;;71.93;51.37;;;;;;;;;;5050437;28;20498;-78
2024/03/19 06:30:49;;;;;;;69.67;50.80;;;;;;;;;;5050386;28;20493;-78
2024/03/19 06:33:16;;;;;;;75.73;53.03;;;;;;;;;;5050945;28;20479;-77
2024/03/19 06:35:43;;;;;;;81.37;51.97;;;;;;;;;;5050681;28;20435;-78
2024/03/19 06:38:10;;;;;;;77.30;52.93;;;;;;;;;;5050739;28;20444;-77
2024/03/19 06:40:38;;;;;;;80.03;51.43;;;;;;;;;;5050748;28;20452;-77
2024/03/19 06:43:05;;;;;;;78.20;50.80;;;;;;;;;;5050443;28;20988;-78
2024/03/19 06:45:32;;;;;;;83.17;50.97;;;;;;;;;;5036527;28;20461;-78
2024/03/19 06:47:59;;;;;;;85.97;53.40;;;;;;;;;;5044760;28;20911;-79
2024/03/19 06:50:26;;;;;;;73.27;49.50;;;;;;;;;;5049315;28;21125;-77
2024/03/19 06:52:55;;;;;;;68.70;50.63;;;;;;;;;;5050122;28;20523;-78
2024/03/19 06:55:22;;;;;;;67.30;49.20;;;;;;;;;;5029930;28;20472;-77
2024/03/19 06:57:51;;;;;;;75.43;50.10;;;;;;;;;;5029603;28;20471;-79
2024/03/19 07:00:19;;;;;;;77.83;53.10;;;;;;;;;;5041688;28;20455;-78
2024/03/19 07:02:47;;;;;;;84.37;53.63;;;;;;;;;;5048840;28;20875;-77
2024/03/19 07:05:14;;;;;;;83.37;54.73;;;;;;;;;;5030413;28;20453;-76
2024/03/19 07:07:41;;;;;;;71.00;49.80;;;;;;;;;;5030044;28;20451;-77
2024/03/19 07:10:10;;;;;;;82.63;51.33;;;;;;;;;;5030150;28;20466;-77
2024/03/19 07:12:37;;;;;;;86.77;55.67;;;;;;;;;;5030278;28;20507;-79
2024/03/19 07:15:10;;;;;;;74.17;49.80;;;;;;;;;;5030157;28;20455;-76
2024/03/19 07:17:37;;;;;;;75.50;49.47;;;;;;;;;;5029355;28;20437;-78
2024/03/19 07:20:09;;;;;;;69.50;50.57;;;;;;;;;;5029732;28;20485;-78
2024/03/19 07:22:36;;;;;;;73.13;49.77;;;;;;;;;;5029991;28;20504;-77
2024/03/19 07:25:07;;;;;;;68.20;49.37;;;;;;;;;;5030037;28;20429;-78
2024/03/19 07:27:36;;;;;;;72.73;49.63;;;;;;;;;;5029517;28;20401;-78
2024/03/19 07:30:03;;;;;;;69.13;49.37;;;;;;;;;;5029336;28;20474;-77
2024/03/19 07:32:32;;;;;;;65.50;46.63;;;;;;;;;;5030236;28;20446;-78
2024/03/19 07:34:59;;;;;;;66.23;50.87;;;;;;;;;;5039577;28;20456;-79
2024/03/19 07:37:27;;;;;;;72.00;49.30;;;;;;;;;;5049581;28;20422;-77
2024/03/19 07:39:56;;;;;;;62.10;48.03;;;;;;;;;;5030103;28;20477;-78
2024/03/19 07:42:23;;;;;;;60.40;46.53;;;;;;;;;;5030013;28;20508;-76
2024/03/19 07:44:51;;;;;;;59.57;44.57;;;;;;;;;;5045611;28;20906;-73
2024/03/19 07:47:18;;;;;;;58.43;45.37;;;;;;;;;;5048844;28;20428;-74
2024/03/19 07:49:46;;;;;;;63.00;44.67;;;;;;;;;;5048504;28;20542;-73
2024/03/19 07:52:13;;;;;;;49.13;42.43;;;;;;;;;;5049103;28;20427;-73
2024/03/19 07:54:41;;;;;;;53.23;43.47;;;;;;;;;;5042032;28;20498;-73
2024/03/19 07:57:08;;;;;;;51.67;42.53;;;;;;;;;;5046428;28;20437;-74
2024/03/19 07:59:36;;;;;;;46.63;41.17;;;;;;;;;;5046222;28;20443;-73
2024/03/19 08:02:04;;;;;;;44.97;40.03;;;;;;;;;;5049735;28;20452;-73
2024/03/19 08:04:31;;;;;;;48.37;40.83;;;;;;;;;;5049430;28;20431;-73
2024/03/19 08:07:00;;;;;;;48.37;40.83;;;;;;;;;;5048742;28;20876;-74
2024/03/19 08:09:27;;;;;;;48.00;41.40;;;;;;;;;;5048829;28;21378;-73
2024/03/19 08:11:54;;;;;;;50.47;41.57;;;;;;;;;;5044342;28;20428;-73
2024/03/19 08:14:21;;;;;;;44.97;39.20;;;;;;;;;;5032992;28;20889;-73
2024/03/19 08:16:48;;;;;;;44.17;38.40;;;;;;;;;;5032433;28;20425;-73
2024/03/19 08:19:16;;;;;;;42.20;37.57;;;;;;;;;;5032730;28;20440;-73
2024/03/19 08:21:43;;;;;;;41.77;36.87;;;;;;;;;;5032524;28;20466;-74
2024/03/19 08:24:11;;;;;;;42.43;37.93;;;;;;;;;;5032674;28;20444;-73
2024/03/19 08:26:39;;;;;;;40.80;36.60;;;;;;;;;;5048848;28;20469;-74
2024/03/19 08:29:06;;;;;;;44.73;39.23;;;;;;;;;;5052164;28;20563;-73
2024/03/19 08:31:33;;;;;;;46.00;38.80;;;;;;;;;;5047868;28;20466;-78
2024/03/19 08:34:00;;;;;;;40.27;35.97;;;;;;;;;;5032506;28;20461;-73
2024/03/19 08:36:28;;;;;;;40.90;35.77;;;;;;;;;;5031928;28;20490;-75
2024/03/19 08:38:54;;;;;;;40.10;36.10;;;;;;;;;;5032130;28;20463;-75
2024/03/19 08:41:23;;;;;;;41.13;36.53;;;;;;;;;;5032221;28;20508;-75
2024/03/19 08:43:51;;;;;;;40.83;36.17;;;;;;;;;;5047742;28;20440;-76
2024/03/19 08:46:19;;;;;;;42.83;38.37;;;;;;;;;;5045959;28;20460;-75
2024/03/19 08:48:46;;;;;;;38.93;34.73;;;;;;;;;;5051621;28;20470;-75
2024/03/19 08:51:13;;;;;;;41.20;35.60;;;;;;;;;;5052234;28;20463;-75
2024/03/19 08:53:40;;;;;;;38.97;34.87;;;;;;;;;;5033967;28;20526;-75
2024/03/19 08:56:08;;;;;;;39.27;35.27;;;;;;;;;;5051392;28;20914;-75
2024/03/19 08:58:37;;;;;;;38.03;34.33;;;;;;;;;;5052474;28;20453;-77
2024/03/19 09:01:06;;;;;;;38.77;34.67;;;;;;;;;;5055979;28;20460;-85
2024/03/19 09:03:34;;;;;;;38.23;34.40;;;;;;;;;;5047199;28;20465;-80
2024/03/19 09:06:02;;;;;;;38.70;34.67;;;;;;;;;;5039696;28;20461;-81
2024/03/19 09:08:29;;;;;;;39.93;35.63;;;;;;;;;;5040216;28;20428;-81
2024/03/19 09:10:56;;;;;;;40.03;36.00;;;;;;;;;;5040941;28;20570;-81
2024/03/19 09:13:24;;;;;;;37.93;34.00;;;;;;;;;;5041842;28;20416;-80
2024/03/19 09:15:52;;;;;;;40.33;36.33;;;;;;;;;;5041173;28;20454;-81
2024/03/19 09:18:19;;;;;;;38.13;34.27;;;;;;;;;;5040704;28;20457;-81
2024/03/19 09:20:47;;;;;;;36.07;32.43;;;;;;;;;;5040780;28;20452;-81
2024/03/19 09:23:14;;;;;;;41.97;37.57;;;;;;;;;;5040569;28;20427;-81
2024/03/19 09:25:42;;;;;;;41.23;36.40;;;;;;;;;;5040254;28;20427;-82
2024/03/19 09:28:09;;;;;;;42.37;37.80;;;;;;;;;;5040748;28;20456;-80
2024/03/19 09:30:37;;;;;;;40.87;35.80;;;;;;;;;;5040446;28;20467;-80
2024/03/19 09:33:06;;;;;;;40.37;36.30;;;;;;;;;;5040788;28;20541;-81
2024/03/19 09:35:34;;;;;;;42.30;37.83;;;;;;;;;;5040253;28;20777;-81
2024/03/19 09:38:01;;;;;;;39.70;35.70;;;;;;;;;;5039309;28;20463;-81
2024/03/19 09:40:28;;;;;;;39.47;35.47;;;;;;;;;;5039762;28;20443;-81
2024/03/19 09:42:55;;;;;;;40.97;36.73;;;;;;;;;;5040061;28;20834;-81
2024/03/19 09:45:27;;;;;;;41.00;36.90;;;;;;;;;;5039888;28;20423;-82
2024/03/19 09:47:56;;;;;;;39.07;35.20;;;;;;;;;;5038599;28;20435;-81
2024/03/19 09:50:25;;;;;;;40.30;36.10;;;;;;;;;;5039571;28;20540;-81
2024/03/19 09:52:53;;;;;;;37.90;34.20;;;;;;;;;;5040288;28;20479;-81
2024/03/19 09:55:22;;;;;;;42.97;36.13;;;;;;;;;;5039817;28;20494;-81
2024/03/19 09:57:49;;;;;;;40.87;35.90;;;;;;;;;;5039353;28;20456;-81
2024/03/19 10:00:20;;;;;;;39.13;35.00;;;;;;;;;;5039900;28;20496;-80
2024/03/19 10:02:47;;;;;;;43.53;35.90;;;;;;;;;;5040127;28;20422;-81
2024/03/19 10:05:14;;;;;;;37.10;33.37;;;;;;;;;;5039684;28;20505;-80
2024/03/19 10:07:42;;;;;;;36.50;32.80;;;;;;;;;;5039481;28;20424;-80
2024/03/19 10:10:10;;;;;;;37.37;33.53;;;;;;;;;;5039636;28;20537;-81
2024/03/19 10:12:37;;;;;;;38.17;34.27;;;;;;;;;;5039964;28;20438;-81
2024/03/19 10:15:08;;;;;;;37.70;33.43;;;;;;;;;;5040030;28;20518;-81
2024/03/19 10:17:35;;;;;;;36.73;33.00;;;;;;;;;;5039108;28;20471;-80
2024/03/19 10:20:03;;;;;;;37.27;33.57;;;;;;;;;;5039587;28;20448;-81
2024/03/19 10:22:30;;;;;;;36.40;32.70;;;;;;;;;;5039674;28;20455;-81
2024/03/19 10:24:58;;;;;;;34.77;31.40;;;;;;;;;;5039572;28;20499;-81
2024/03/19 10:27:25;;;;;;;35.20;31.80;;;;;;;;;;5039411;28;20446;-80
2024/03/19 10:29:52;;;;;;;36.53;32.70;;;;;;;;;;5039537;28;20486;-81
2024/03/19 10:32:19;;;;;;;34.77;31.37;;;;;;;;;;5038587;28;20461;-81
2024/03/19 10:34:47;;;;;;;37.10;33.23;;;;;;;;;;5039263;28;20459;-81
2024/03/19 10:37:14;;;;;;;35.83;32.37;;;;;;;;;;5038748;28;20532;-80
2024/03/19 10:39:43;;;;;;;39.53;31.80;;;;;;;;;;5047123;28;20490;-82
2024/03/19 10:42:13;;;;;;;35.40;32.00;;;;;;;;;;5058555;28;20557;-80
2024/03/19 10:44:41;;;;;;;33.73;30.63;;;;;;;;;;5059017;28;20432;-80
2024/03/19 10:47:10;;;;;;;35.40;32.00;;;;;;;;;;5052033;28;20543;-81
2024/03/19 10:49:37;;;;;;;37.47;32.50;;;;;;;;;;5041124;28;20467;-81
2024/03/19 10:52:07;;;;;;;38.37;34.90;;;;;;;;;;5038825;28;20527;-80
2024/03/19 10:54:36;;;;;;;33.47;30.60;;;;;;;;;;5039660;28;20512;-80
2024/03/19 10:57:05;;;;;;;37.23;33.57;;;;;;;;;;5038869;28;20454;-81
2024/03/19 10:59:39;;;;;;;36.47;32.77;;;;;;;;;;5039370;28;20477;-80
2024/03/19 11:02:06;;;;;;;36.80;33.37;;;;;;;;;;5039600;28;20466;-82
2024/03/19 11:04:33;;;;;;;40.00;35.90;;;;;;;;;;5050093;28;20535;-81
2024/03/19 11:07:01;;;;;;;38.30;34.67;;;;;;;;;;5057650;28;20457;-81
2024/03/19 11:09:28;;;;;;;37.37;34.00;;;;;;;;;;5051173;28;20534;-81
2024/03/19 11:11:56;;;;;;;39.10;35.43;;;;;;;;;;5042632;28;20863;-81
2024/03/19 11:14:25;;;;;;;37.20;33.30;;;;;;;;;;5038310;28;20933;-80
2024/03/19 11:16:53;;;;;;;36.70;33.17;;;;;;;;;;5038093;28;20496;-80
2024/03/19 11:19:21;;;;;;;37.47;33.73;;;;;;;;;;5038155;28;20474;-81
2024/03/19 11:21:49;;;;;;;38.73;34.27;;;;;;;;;;5046640;28;20961;-80
2024/03/19 11:24:22;;;;;;;39.10;35.20;;;;;;;;;;5037639;28;20484;-81
2024/03/19 11:26:49;;;;;;;38.07;34.60;;;;;;;;;;5037871;28;20419;-80
2024/03/19 11:29:17;;;;;;;38.67;34.90;;;;;;;;;;5040131;28;20466;-81
2024/03/19 11:31:45;;;;;;;36.27;32.83;;;;;;;;;;5057550;28;20466;-80
2024/03/19 11:34:15;;;;;;;37.40;33.97;;;;;;;;;;5057747;28;20434;-80
2024/03/19 11:36:46;;;;;;;37.80;34.20;;;;;;;;;;5057181;28;20762;-80
2024/03/19 11:39:13;;;;;;;37.30;33.90;;;;;;;;;;5045005;28;20482;-81
2024/03/19 11:41:40;;;;;;;36.93;33.23;;;;;;;;;;5037551;28;20450;-80
2024/03/19 11:44:07;;;;;;;36.63;33.03;;;;;;;;;;5038234;28;20480;-81
2024/03/19 11:46:34;;;;;;;40.30;35.33;;;;;;;;;;5037169;28;20461;-80
2024/03/19 11:49:01;;;;;;;38.77;34.70;;;;;;;;;;5038504;28;20832;-87
2024/03/19 11:51:30;;;;;;;39.27;35.27;;;;;;;;;;5063383;28;20488;-88
2024/03/19 11:54:03;;;;;;;35.17;32.00;;;;;;;;;;5048916;28;20789;-88
2024/03/19 11:56:30;;;;;;;36.93;33.53;;;;;;;;;;5050536;28;20449;-82
2024/03/19 11:58:57;;;;;;;37.17;33.97;;;;;;;;;;5048347;28;20469;-82
2024/03/19 12:01:24;;;;;;;34.10;30.70;;;;;;;;;;5040917;28;21224;-82
2024/03/19 12:03:51;;;;;;;32.67;29.57;;;;;;;;;;5040667;28;20465;-83
2024/03/19 12:06:18;;;;;;;36.17;32.40;;;;;;;;;;5040901;28;20827;-82
2024/03/19 12:08:47;;;;;;;34.37;31.43;;;;;;;;;;5041411;28;20456;-82
2024/03/19 12:11:19;;;;;;;34.07;30.57;;;;;;;;;;5041350;28;20578;-82
2024/03/19 12:13:46;;;;;;;35.63;32.40;;;;;;;;;;5041202;28;20408;-82
2024/03/19 12:16:13;;;;;;;36.43;32.90;;;;;;;;;;5040663;28;20453;-81
2024/03/19 12:18:40;;;;;;;36.07;32.33;;;;;;;;;;5040219;28;20452;-81
2024/03/19 12:21:07;;;;;;;33.60;30.80;;;;;;;;;;5040463;28;20895;-82
2024/03/19 12:23:37;;;;;;;35.00;31.93;;;;;;;;;;5041470;28;20428;-81
2024/03/19 12:26:06;;;;;;;35.17;31.90;;;;;;;;;;5040503;28;20409;-81
2024/03/19 12:28:33;;;;;;;33.87;30.80;;;;;;;;;;5041004;28;20442;-82
2024/03/19 12:31:00;;;;;;;35.00;31.83;;;;;;;;;;5040476;28;20570;-83
2024/03/19 12:33:37;;;;;;;32.63;29.73;;;;;;;;;;5041259;28;20461;-81
2024/03/19 12:36:05;;;;;;;35.43;32.10;;;;;;;;;;5039440;28;20426;-81
2024/03/19 12:38:32;;;;;;;35.73;31.97;;;;;;;;;;5040221;28;20433;-83
2024/03/19 12:40:59;;;;;;;33.67;30.40;;;;;;;;;;5043362;28;20488;-81
2024/03/19 12:43:27;;;;;;;31.83;28.40;;;;;;;;;;5041016;28;20432;-82
2024/03/19 12:45:54;;;;;;;35.33;31.70;;;;;;;;;;5040030;28;20475;-83
2024/03/19 12:48:22;;;;;;;34.37;31.47;;;;;;;;;;5049679;28;20499;-80
2024/03/19 12:50:49;;;;;;;37.43;33.90;;;;;;;;;;5039748;28;20512;-83
2024/03/19 12:53:17;;;;;;;36.17;32.57;;;;;;;;;;5039558;28;20461;-82
2024/03/19 12:55:47;;;;;;;37.27;33.90;;;;;;;;;;5038057;28;20428;-81
2024/03/19 12:58:14;;;;;;;36.77;33.23;;;;;;;;;;5038082;28;20480;-80
2024/03/19 13:00:42;;;;;;;35.90;32.60;;;;;;;;;;5037727;28;20481;-81
2024/03/19 13:03:09;;;;;;;36.80;33.30;;;;;;;;;;5037931;28;20513;-80
2024/03/19 13:05:37;;;;;;;34.83;31.73;;;;;;;;;;5038684;28;21110;-81
2024/03/19 13:08:04;;;;;;;36.33;32.80;;;;;;;;;;5034663;28;20432;-82
2024/03/19 13:10:33;;;;;;;35.00;31.90;;;;;;;;;;5039421;28;20473;-81
2024/03/19 13:13:00;;;;;;;34.40;31.57;;;;;;;;;;5037424;28;20939;-76
2024/03/19 13:15:27;;;;;;;35.60;32.23;;;;;;;;;;5044954;28;20470;-84
2024/03/19 13:17:55;;;;;;;34.03;31.13;;;;;;;;;;5049215;28;20456;-84
2024/03/19 13:20:22;;;;;;;32.83;30.10;;;;;;;;;;5056850;28;20822;-87
2024/03/19 13:22:49;;;;;;;33.47;30.80;;;;;;;;;;5057286;28;20452;-87
2024/03/19 13:25:17;;;;;;;28.83;26.47;;;;;;;;;;5056095;28;21293;-88
2024/03/19 13:27:44;;;;;;;32.30;29.63;;;;;;;;;;5055417;28;20874;-79
2024/03/19 13:30:13;;;;;;;33.47;30.57;;;;;;;;;;5042260;28;20638;-77
2024/03/19 13:32:40;;;;;;;34.23;31.33;;;;;;;;;;5031518;28;20505;-72
2024/03/19 13:35:09;;;;;;;33.43;30.83;;;;;;;;;;5034694;28;20509;-86
2024/03/19 13:37:36;;;;;;;33.80;30.87;;;;;;;;;;5034084;28;20455;-78
2024/03/19 13:40:05;;;;;;;33.43;30.83;;;;;;;;;;5037845;28;20561;-85
2024/03/19 13:42:31;;;;;;;34.87;32.10;;;;;;;;;;5038401;28;20478;-84
2024/03/19 13:44:59;;;;;;;33.60;30.90;;;;;;;;;;5038563;28;20501;-85
2024/03/19 13:47:28;;;;;;;33.10;30.00;;;;;;;;;;5048046;28;20942;-86
2024/03/19 13:49:55;;;;;;;32.53;30.03;;;;;;;;;;5054920;28;20501;-86
2024/03/19 13:52:23;;;;;;;33.57;30.83;;;;;;;;;;5055166;28;20481;-87
2024/03/19 13:54:50;;;;;;;32.73;30.23;;;;;;;;;;5056188;28;21282;-88
2024/03/19 13:57:17;;;;;;;33.83;31.20;;;;;;;;;;5051504;28;20449;-76
2024/03/19 13:59:44;;;;;;;34.20;31.30;;;;;;;;;;5053848;28;20474;-86
2024/03/19 14:02:11;;;;;;;32.63;29.90;;;;;;;;;;5055418;28;20531;-83
2024/03/19 14:04:39;;;;;;;32.00;29.23;;;;;;;;;;5053874;28;20431;-78
2024/03/19 14:07:06;;;;;;;31.23;28.83;;;;;;;;;;5057685;28;20432;-86
2024/03/19 14:09:35;;;;;;;31.50;29.00;;;;;;;;;;5058521;28;20481;-84
2024/03/19 14:12:02;;;;;;;31.47;28.80;;;;;;;;;;5058544;28;20533;-83
2024/03/19 14:14:33;;;;;;;31.30;28.90;;;;;;;;;;5056208;28;20496;-79
2024/03/19 14:17:00;;;;;;;33.40;30.37;;;;;;;;;;5043253;28;20508;-81
2024/03/19 14:19:27;;;;;;;33.03;30.30;;;;;;;;;;5044290;28;20485;-80
2024/03/19 14:21:55;;;;;;;32.83;30.30;;;;;;;;;;5055385;28;20453;-81
2024/03/19 14:24:23;;;;;;;30.73;28.17;;;;;;;;;;5056479;28;20442;-84
2024/03/19 14:26:52;;;;;;;34.57;31.77;;;;;;;;;;5053314;28;20806;-77
2024/03/19 14:29:19;;;;;;;34.57;31.50;;;;;;;;;;5034906;28;20536;-77
2024/03/19 14:31:46;;;;;;;35.73;32.97;;;;;;;;;;5031183;28;20490;-77